createdAt,value
2023-02-01T00:00:52.852Z,62.08
2023-02-01T00:03:20.656Z,62.61
2023-02-01T00:05:57.033Z,62.21
2023-02-01T00:08:23.871Z,62.22
2023-02-01T00:11:06.790Z,62.55
2023-02-01T00:13:36.286Z,62.60
2023-02-01T00:16:07.984Z,62.18
2023-02-01T00:18:36.093Z,61.71
2023-02-01T00:21:03.006Z,63.23
2023-02-01T00:23:32.610Z,63.14
2023-02-01T00:26:05.252Z,62.02
2023-02-01T00:28:32.510Z,61.44
2023-02-01T00:31:04.096Z,62.41
2023-02-01T00:33:32.188Z,62.31
2023-02-01T00:36:00.556Z,61.98
2023-02-01T00:38:28.147Z,63.22
2023-02-01T00:40:55.492Z,62.43
2023-02-01T00:43:22.193Z,63.14
2023-02-01T00:45:49.047Z,64.04
2023-02-01T00:48:15.775Z,62.84
2023-02-01T00:50:43.909Z,64.66
2023-02-01T00:53:11.418Z,64.62
2023-02-01T00:55:38.472Z,67.12
2023-02-01T00:58:05.200Z,66.55
2023-02-01T01:00:31.927Z,66.71
2023-02-01T01:02:58.657Z,65.36
2023-02-01T01:05:25.413Z,65.40
2023-02-01T01:07:52.794Z,65.25
2023-02-01T01:10:22.227Z,67.01
2023-02-01T01:12:49.267Z,65.82
2023-02-01T01:15:15.958Z,67.25
2023-02-01T01:17:42.589Z,67.19
2023-02-01T01:20:10.098Z,66.08
2023-02-01T01:22:36.709Z,65.63
2023-02-01T01:25:03.480Z,65.75
2023-02-01T01:27:30.159Z,64.86
2023-02-01T01:29:56.786Z,64.72
2023-02-01T01:32:23.461Z,65.30
2023-02-01T01:34:50.216Z,66.45
2023-02-01T01:37:16.824Z,65.89
2023-02-01T01:39:43.426Z,66.79
2023-02-01T01:42:12.653Z,66.95
2023-02-01T01:45:02.360Z,67.06
2023-02-01T01:47:40.507Z,65.28
2023-02-01T01:50:11.439Z,65.79
2023-02-01T01:52:42.278Z,65.90
2023-02-01T01:55:09.304Z,65.30
2023-02-01T01:57:42.803Z,66.24
2023-02-01T02:00:13.543Z,65.76
2023-02-01T02:02:43.948Z,64.99
2023-02-01T02:05:13.616Z,65.07
2023-02-01T02:07:46.443Z,65.02
2023-02-01T02:10:16.818Z,64.27
2023-02-01T02:12:48.564Z,65.50
2023-02-01T02:15:17.994Z,65.83
2023-02-01T02:18:16.559Z,65.72
2023-02-01T02:20:49.040Z,65.04
2023-02-01T02:23:46.401Z,64.93
2023-02-01T02:26:31.929Z,64.65
2023-02-01T02:29:34.968Z,64.46
2023-02-01T02:32:41.288Z,63.87
2023-02-01T02:35:26.179Z,64.42
2023-02-01T02:38:02.113Z,63.26
2023-02-01T02:40:37.902Z,62.36
2023-02-01T02:43:17.388Z,63.12
2023-02-01T02:46:04.937Z,63.20
2023-02-01T02:48:45.578Z,63.30
2023-02-01T02:51:33.308Z,63.35
2023-02-01T02:54:16.736Z,63.59
2023-02-01T02:56:43.488Z,64.52
2023-02-01T02:59:15.487Z,66.21
2023-02-01T03:01:44.104Z,65.63
2023-02-01T03:04:11.673Z,65.77
2023-02-01T03:06:38.992Z,67.64
2023-02-01T03:09:13.641Z,69.49
2023-02-01T03:11:46.770Z,68.62
2023-02-01T03:14:17.801Z,67.58
2023-02-01T03:16:55.073Z,68.06
2023-02-01T03:19:34.032Z,67.98
2023-02-01T03:22:12.167Z,68.97
2023-02-01T03:24:45.421Z,68.88
2023-02-01T03:27:34.896Z,69.76
2023-02-01T03:30:14.064Z,68.39
2023-02-01T03:32:44.296Z,67.50
2023-02-01T03:35:10.956Z,66.99
2023-02-01T03:37:38.051Z,67.76
2023-02-01T03:40:12.321Z,68.20
2023-02-01T03:42:50.444Z,69.15
2023-02-01T03:45:28.777Z,68.75
2023-02-01T03:48:01.071Z,67.44
2023-02-01T03:50:31.655Z,67.28
2023-02-01T03:53:06.481Z,67.27
2023-02-01T03:55:34.019Z,67.17
2023-02-01T03:58:24.264Z,66.25
2023-02-01T04:00:59.313Z,67.92
2023-02-01T04:03:28.182Z,66.73
2023-02-01T04:05:55.631Z,67.55
2023-02-01T04:08:23.356Z,67.84
2023-02-01T04:10:50.137Z,67.78
2023-02-01T04:13:31.879Z,68.05
2023-02-01T04:15:58.551Z,67.63
2023-02-01T04:18:25.178Z,68.29
2023-02-01T04:20:51.775Z,68.27
2023-02-01T04:23:18.417Z,70.69
2023-02-01T04:25:45.224Z,70.31
2023-02-01T04:28:11.829Z,68.34
2023-02-01T04:30:38.575Z,70.00
2023-02-01T04:33:05.456Z,68.71
2023-02-01T04:35:32.205Z,70.66
2023-02-01T04:37:58.839Z,71.35
2023-02-01T04:40:25.705Z,69.57
2023-02-01T04:42:52.465Z,69.81
2023-02-01T04:45:19.059Z,69.36
2023-02-01T04:47:45.665Z,68.75
2023-02-01T04:50:12.385Z,69.48
2023-02-01T04:52:38.988Z,71.00
2023-02-01T04:55:05.998Z,74.82
2023-02-01T04:57:32.901Z,72.80
2023-02-01T04:59:59.590Z,72.80
2023-02-01T05:02:26.246Z,72.64
2023-02-01T05:04:52.888Z,73.23
2023-02-01T05:07:19.504Z,71.58
2023-02-01T05:09:46.105Z,70.95
2023-02-01T05:12:12.996Z,70.91
2023-02-01T05:14:39.634Z,71.13
2023-02-01T05:17:06.265Z,69.52
2023-02-01T05:19:32.940Z,69.27
2023-02-01T05:21:59.593Z,70.09
2023-02-01T05:24:26.193Z,69.91
2023-02-01T05:26:52.870Z,70.04
2023-02-01T05:29:19.563Z,68.51
2023-02-01T05:31:47.271Z,67.96
2023-02-01T05:34:15.069Z,67.15
2023-02-01T05:36:42.039Z,66.87
2023-02-01T05:39:08.682Z,66.50
2023-02-01T05:41:35.334Z,67.35
2023-02-01T05:44:05.366Z,66.95
2023-02-01T05:46:32.531Z,68.76
2023-02-01T05:48:59.158Z,67.11
2023-02-01T05:51:25.805Z,66.80
2023-02-01T05:53:52.390Z,66.62
2023-02-01T05:56:19.023Z,65.62
2023-02-01T05:58:45.672Z,66.53
2023-02-01T06:01:12.445Z,67.13
2023-02-01T06:03:39.216Z,66.78
2023-02-01T06:06:06.043Z,65.55
2023-02-01T06:08:33.018Z,64.74
2023-02-01T06:11:01.916Z,66.48
2023-02-01T06:13:28.613Z,66.54
2023-02-01T06:15:55.331Z,67.30
2023-02-01T06:18:22.067Z,66.04
2023-02-01T06:21:00.063Z,64.66
2023-02-01T06:23:26.771Z,65.83
2023-02-01T06:26:05.184Z,65.47
2023-02-01T06:28:33.633Z,65.34
2023-02-01T06:31:07.783Z,64.53
2023-02-01T06:33:35.616Z,64.23
2023-02-01T06:36:05.417Z,63.61
2023-02-01T06:38:32.280Z,63.34
2023-02-01T06:40:59.262Z,63.80
2023-02-01T06:43:28.138Z,65.15
2023-02-01T06:46:00.077Z,63.83
2023-02-01T06:48:26.808Z,64.04
2023-02-01T06:50:53.485Z,64.01
2023-02-01T06:53:20.237Z,67.68
2023-02-01T06:56:13.245Z,64.99
2023-02-01T06:58:39.937Z,64.26
2023-02-01T07:01:09.190Z,65.42
2023-02-01T07:03:36.003Z,64.36
2023-02-01T07:06:02.884Z,64.28
2023-02-01T07:08:31.178Z,64.46
2023-02-01T07:11:02.496Z,63.52
2023-02-01T07:13:29.139Z,63.33
2023-02-01T07:15:59.288Z,62.96
2023-02-01T07:18:26.442Z,63.14
2023-02-01T07:20:53.114Z,64.67
2023-02-01T07:23:19.861Z,64.20
2023-02-01T07:25:48.203Z,64.04
2023-02-01T07:28:15.189Z,62.69
2023-02-01T07:30:41.922Z,63.46
2023-02-01T07:33:08.736Z,63.51
2023-02-01T07:35:35.623Z,63.20
2023-02-01T07:38:02.403Z,62.60
2023-02-01T07:40:29.044Z,61.93
2023-02-01T07:42:56.293Z,62.22
2023-02-01T07:45:24.022Z,62.12
2023-02-01T07:47:53.292Z,63.16
2023-02-01T07:50:20.213Z,62.24
2023-02-01T07:52:46.806Z,61.46
2023-02-01T07:55:13.467Z,60.82
2023-02-01T07:57:40.062Z,60.87
2023-02-01T08:00:07.249Z,64.39
2023-02-01T08:02:33.915Z,67.13
2023-02-01T08:05:00.574Z,67.09
2023-02-01T08:07:27.191Z,68.04
2023-02-01T08:09:53.806Z,65.87
2023-02-01T08:12:20.409Z,64.19
2023-02-01T08:14:47.025Z,63.73
2023-02-01T08:17:13.672Z,62.65
2023-02-01T08:19:40.265Z,63.19
2023-02-01T08:22:06.941Z,63.13
2023-02-01T08:24:34.877Z,62.21
2023-02-01T08:27:02.976Z,62.83
2023-02-01T08:29:29.696Z,63.06
2023-02-01T08:31:56.385Z,63.97
2023-02-01T08:34:23.356Z,62.78
2023-02-01T08:36:49.961Z,62.44
2023-02-01T08:39:23.175Z,63.75
2023-02-01T08:41:49.838Z,62.28
2023-02-01T08:44:16.501Z,62.31
2023-02-01T08:46:43.116Z,63.02
2023-02-01T08:49:09.867Z,63.58
2023-02-01T08:51:36.468Z,62.29
2023-02-01T08:54:03.135Z,62.29
2023-02-01T08:56:29.772Z,62.31
2023-02-01T08:58:56.439Z,61.65
2023-02-01T09:01:23.086Z,62.00
2023-02-01T09:03:49.795Z,63.41
2023-02-01T09:06:16.660Z,62.74
2023-02-01T09:08:44.012Z,61.40
2023-02-01T09:11:17.832Z,61.63
2023-02-01T09:13:44.880Z,63.35
2023-02-01T09:16:12.114Z,63.02
2023-02-01T09:18:46.111Z,62.73
2023-02-01T09:21:23.159Z,61.13
2023-02-01T09:23:52.323Z,60.67
2023-02-01T09:26:19.796Z,62.26
2023-02-01T09:28:49.535Z,63.46
2023-02-01T09:31:16.202Z,65.90
2023-02-01T09:33:42.924Z,64.63
2023-02-01T09:36:09.639Z,64.58
2023-02-01T09:38:38.827Z,61.33
2023-02-01T09:41:32.098Z,61.98
2023-02-01T09:44:43.813Z,61.26
2023-02-01T09:47:26.130Z,59.91
2023-02-01T09:50:01.876Z,59.80
2023-02-01T09:52:39.013Z,57.96
2023-02-01T09:55:19.565Z,57.38
2023-02-01T09:57:54.533Z,57.55
2023-02-01T10:00:30.270Z,57.96
2023-02-01T10:02:59.054Z,56.68
2023-02-01T10:05:52.943Z,57.99
2023-02-01T10:08:25.262Z,58.06
2023-02-01T10:10:52.236Z,57.83
2023-02-01T10:13:55.180Z,57.99
2023-02-01T10:16:51.696Z,59.05
2023-02-01T10:19:30.400Z,56.23
2023-02-01T10:22:07.557Z,57.35
2023-02-01T10:24:41.262Z,57.09
2023-02-01T10:27:18.967Z,57.58
2023-02-01T10:29:55.675Z,56.06
2023-02-01T10:32:30.112Z,55.04
2023-02-01T10:35:00.350Z,56.17
2023-02-01T10:37:33.622Z,56.37
2023-02-01T10:40:24.876Z,56.40
2023-02-01T10:42:59.916Z,56.73
2023-02-01T10:45:33.274Z,57.57
2023-02-01T10:48:03.330Z,57.49
2023-02-01T10:50:47.288Z,57.01
2023-02-01T10:53:29.601Z,58.21
2023-02-01T10:55:57.389Z,57.03
2023-02-01T10:58:32.940Z,57.63
2023-02-01T11:01:01.348Z,59.65
2023-02-01T11:03:33.421Z,61.13
2023-02-01T11:06:01.710Z,59.37
2023-02-01T11:08:28.705Z,59.45
2023-02-01T11:11:01.423Z,58.76
2023-02-01T11:13:37.652Z,59.33
2023-02-01T11:16:06.502Z,60.00
2023-02-01T11:18:40.085Z,60.74
2023-02-01T11:21:09.750Z,59.83
2023-02-01T11:23:46.299Z,58.93
2023-02-01T11:26:26.624Z,57.91
2023-02-01T11:29:07.438Z,56.73
2023-02-01T11:31:36.261Z,57.00
2023-02-01T11:34:16.364Z,57.44
2023-02-01T11:36:46.937Z,58.25
2023-02-01T11:39:13.495Z,56.77
2023-02-01T11:41:56.997Z,56.04
2023-02-01T11:44:31.937Z,55.11
2023-02-01T11:47:26.077Z,53.57
2023-02-01T11:49:56.010Z,54.08
2023-02-01T11:52:40.728Z,56.04
2023-02-01T11:55:25.909Z,54.68
2023-02-01T11:58:01.257Z,55.10
2023-02-01T12:00:44.694Z,55.00
2023-02-01T12:03:55.643Z,54.94
2023-02-01T12:06:35.783Z,54.28
2023-02-01T12:09:30.111Z,54.14
2023-02-01T12:12:24.902Z,55.60
2023-02-01T12:15:39.939Z,56.86
2023-02-01T12:18:11.158Z,56.68
2023-02-01T12:21:03.931Z,55.71
2023-02-01T12:23:50.972Z,56.29
2023-02-01T12:26:39.159Z,55.35
2023-02-01T12:29:18.308Z,54.01
2023-02-01T12:32:06.263Z,52.60
2023-02-01T12:34:54.635Z,53.88
2023-02-01T12:37:38.359Z,53.10
2023-02-01T12:40:48.654Z,51.83
2023-02-01T12:43:23.684Z,51.43
2023-02-01T12:46:02.263Z,52.82
2023-02-01T12:48:41.678Z,53.28
2023-02-01T12:51:16.552Z,52.47
2023-02-01T12:53:59.998Z,54.01
2023-02-01T12:56:29.963Z,53.91
2023-02-01T12:59:02.646Z,53.92
2023-02-01T13:01:48.388Z,53.40
2023-02-01T13:04:30.884Z,54.38
2023-02-01T13:07:17.965Z,53.81
2023-02-01T13:09:50.523Z,52.71
2023-02-01T13:12:26.919Z,52.30
2023-02-01T13:14:58.608Z,53.20
2023-02-01T13:17:30.689Z,53.25
2023-02-01T13:20:19.983Z,52.91
2023-02-01T13:22:55.403Z,52.42
2023-02-01T13:25:34.964Z,51.74
2023-02-01T13:28:12.705Z,52.06
2023-02-01T13:30:51.157Z,51.17
2023-02-01T13:33:56.232Z,52.27
2023-02-01T13:36:29.259Z,52.25
2023-02-01T13:39:14.415Z,51.87
2023-02-01T13:41:52.162Z,53.90
2023-02-01T13:44:38.914Z,53.29
2023-02-01T13:47:24.810Z,52.15
2023-02-01T13:49:55.513Z,52.08
2023-02-01T13:52:27.919Z,52.72
2023-02-01T13:55:22.867Z,55.03
2023-02-01T13:57:59.533Z,54.78
2023-02-01T14:00:37.237Z,53.44
2023-02-01T14:03:07.086Z,52.59
2023-02-01T14:05:33.687Z,53.57
2023-02-01T14:08:12.645Z,53.68
2023-02-01T14:10:45.423Z,54.30
2023-02-01T14:13:34.364Z,54.24
2023-02-01T14:16:03.937Z,55.55
2023-02-01T14:18:36.731Z,56.53
2023-02-01T14:21:35.036Z,54.57
2023-02-01T14:24:04.355Z,53.08
2023-02-01T14:26:50.860Z,52.26
2023-02-01T14:29:21.449Z,52.89
2023-02-01T14:32:28.998Z,52.64
2023-02-01T14:35:00.410Z,52.23
2023-02-01T14:37:34.804Z,52.00
2023-02-01T14:40:13.725Z,52.70
2023-02-01T14:42:49.868Z,52.26
2023-02-01T14:45:19.524Z,51.80
2023-02-01T14:47:46.876Z,52.16
2023-02-01T14:50:30.436Z,51.36
2023-02-01T14:53:04.748Z,51.86
2023-02-01T14:55:34.333Z,50.99
2023-02-01T14:58:06.013Z,52.04
2023-02-01T15:00:33.684Z,52.94
2023-02-01T15:03:51.633Z,54.90
2023-02-01T15:06:38.418Z,55.06
2023-02-01T15:09:22.296Z,54.99
2023-02-01T15:12:00.378Z,55.32
2023-02-01T15:14:29.634Z,53.37
2023-02-01T15:16:56.436Z,52.83
2023-02-01T15:19:25.526Z,52.59
2023-02-01T15:21:54.988Z,53.36
2023-02-01T15:24:27.206Z,54.34
2023-02-01T15:26:56.893Z,54.25
2023-02-01T15:29:25.374Z,54.30
2023-02-01T15:31:54.175Z,53.32
2023-02-01T15:34:22.310Z,52.62
2023-02-01T15:37:02.141Z,51.85
2023-02-01T15:39:30.467Z,52.26
2023-02-01T15:42:00.847Z,51.29
2023-02-01T15:44:44.023Z,50.08
2023-02-01T15:47:17.983Z,50.89
2023-02-01T15:49:51.505Z,50.57
2023-02-01T15:52:31.715Z,50.62
2023-02-01T15:55:03.094Z,50.49
2023-02-01T15:57:39.411Z,50.64
2023-02-01T16:00:23.495Z,49.62
2023-02-01T16:03:04.464Z,49.88
2023-02-01T16:05:41.780Z,50.18
2023-02-01T16:08:13.688Z,51.20
2023-02-01T16:10:44.611Z,51.23
2023-02-01T16:13:11.406Z,50.64
2023-02-01T16:15:38.056Z,49.67
2023-02-01T16:18:05.733Z,49.94
2023-02-01T16:20:32.413Z,50.84
2023-02-01T16:22:59.126Z,50.40
2023-02-01T16:25:26.272Z,49.22
2023-02-01T16:27:53.149Z,48.81
2023-02-01T16:30:20.042Z,48.82
2023-02-01T16:32:46.756Z,51.00
2023-02-01T16:35:25.808Z,49.62
2023-02-01T16:37:53.432Z,51.06
2023-02-01T16:40:21.723Z,51.07
2023-02-01T16:42:52.382Z,50.09
2023-02-01T16:45:20.070Z,49.63
2023-02-01T16:47:52.495Z,50.72
2023-02-01T16:50:24.329Z,49.69
2023-02-01T16:52:52.114Z,49.63
2023-02-01T16:55:21.519Z,49.38
2023-02-01T16:57:49.128Z,49.15
2023-02-01T17:00:24.479Z,52.06
2023-02-01T17:02:52.500Z,51.08
2023-02-01T17:05:19.263Z,52.58
2023-02-01T17:07:46.544Z,55.04
2023-02-01T17:10:39.657Z,57.39
2023-02-01T17:13:09.351Z,56.27
2023-02-01T17:15:36.224Z,55.16
2023-02-01T17:18:03.606Z,55.50
2023-02-01T17:20:31.879Z,56.58
2023-02-01T17:22:59.275Z,59.69
2023-02-01T17:25:28.704Z,59.98
2023-02-01T17:27:55.496Z,58.29
2023-02-01T17:30:22.503Z,57.98
2023-02-01T17:32:49.452Z,58.11
2023-02-01T17:35:25.793Z,56.30
2023-02-01T17:37:53.919Z,57.61
2023-02-01T17:40:20.668Z,56.91
2023-02-01T17:42:47.832Z,55.91
2023-02-01T17:45:38.386Z,54.87
2023-02-01T17:48:06.473Z,56.83
2023-02-01T17:50:36.781Z,56.72
2023-02-01T17:53:04.528Z,57.63
2023-02-01T17:55:35.466Z,57.71
2023-02-01T17:58:02.325Z,57.28
2023-02-01T18:00:29.500Z,57.25
2023-02-01T18:02:56.208Z,56.29
2023-02-01T18:05:29.559Z,55.07
2023-02-01T18:07:56.501Z,54.79
2023-02-01T18:10:23.187Z,54.38
2023-02-01T18:12:50.057Z,53.53
2023-02-01T18:15:23.522Z,52.82
2023-02-01T18:17:50.394Z,52.05
2023-02-01T18:20:23.021Z,51.87
2023-02-01T18:22:50.421Z,52.24
2023-02-01T18:25:25.159Z,52.40
2023-02-01T18:27:54.848Z,52.17
2023-02-01T18:30:24.340Z,52.12
2023-02-01T18:32:51.520Z,51.34
2023-02-01T18:35:23.176Z,52.12
2023-02-01T18:37:51.725Z,51.63
2023-02-01T18:40:21.779Z,51.22
2023-02-01T18:42:48.861Z,51.97
2023-02-01T18:45:41.711Z,52.19
2023-02-01T18:48:10.978Z,52.28
2023-02-01T18:50:41.208Z,53.31
2023-02-01T18:53:13.590Z,52.42
2023-02-01T18:55:40.437Z,51.98
2023-02-01T18:58:07.700Z,51.80
2023-02-01T19:00:35.767Z,51.53
2023-02-01T19:03:02.588Z,51.52
2023-02-01T19:05:31.325Z,52.64
2023-02-01T19:07:58.057Z,52.27
2023-02-01T19:10:26.083Z,52.59
2023-02-01T19:12:54.459Z,52.38
2023-02-01T19:15:22.302Z,52.83
2023-02-01T19:17:51.135Z,52.50
2023-02-01T19:20:20.139Z,53.43
2023-02-01T19:22:48.551Z,54.74
2023-02-01T19:25:18.855Z,57.47
2023-02-01T19:27:45.750Z,55.75
2023-02-01T19:30:13.353Z,54.47
2023-02-01T19:32:40.854Z,54.91
2023-02-01T19:35:10.040Z,54.75
2023-02-01T19:37:36.754Z,56.09
2023-02-01T19:40:03.637Z,59.83
2023-02-01T19:42:55.559Z,61.08
2023-02-01T19:45:22.947Z,61.78
2023-02-01T19:47:49.803Z,62.46
2023-02-01T19:50:19.672Z,62.10
2023-02-01T19:52:46.529Z,63.51
2023-02-01T19:55:14.086Z,61.50
2023-02-01T19:57:40.896Z,62.76
2023-02-01T20:00:08.156Z,61.89
2023-02-01T20:02:33.998Z,62.56
2023-02-01T20:05:00.693Z,62.50
2023-02-01T20:07:27.445Z,61.88
2023-02-01T20:09:54.202Z,62.39
2023-02-01T20:12:20.834Z,61.86
2023-02-01T20:14:47.437Z,61.18
2023-02-01T20:17:15.907Z,60.89
2023-02-01T20:19:42.680Z,60.27
2023-02-01T20:22:09.302Z,60.08
2023-02-01T20:24:35.945Z,60.20
2023-02-01T20:27:03.600Z,60.28
2023-02-01T20:29:30.343Z,60.17
2023-02-01T20:31:58.112Z,60.35
2023-02-01T20:34:24.815Z,59.45
2023-02-01T20:36:51.629Z,59.88
2023-02-01T20:39:18.423Z,60.32
2023-02-01T20:41:45.175Z,60.19
2023-02-01T20:44:13.054Z,58.51
2023-02-01T20:46:39.809Z,59.29
2023-02-01T20:49:06.560Z,57.78
2023-02-01T20:51:34.410Z,58.35
2023-02-01T20:54:01.141Z,58.72
2023-02-01T20:56:27.802Z,58.00
2023-02-01T20:58:54.464Z,57.59
2023-02-01T21:01:21.124Z,58.04
2023-02-01T21:03:47.795Z,58.31
2023-02-01T21:06:14.464Z,58.00
2023-02-01T21:08:41.334Z,56.68
2023-02-01T21:11:10.998Z,56.59
2023-02-01T21:13:40.888Z,56.01
2023-02-01T21:16:10.325Z,53.48
2023-02-01T21:18:37.328Z,52.34
2023-02-01T21:21:09.005Z,51.02
2023-02-01T21:23:39.248Z,51.24
2023-02-01T21:26:05.949Z,50.59
2023-02-01T21:28:32.735Z,49.67
2023-02-01T21:30:59.656Z,50.38
2023-02-01T21:33:26.388Z,51.82
2023-02-01T21:35:53.078Z,50.62
2023-02-01T21:38:19.735Z,49.31
2023-02-01T21:40:46.397Z,49.43
2023-02-01T21:43:13.068Z,49.71
2023-02-01T21:45:46.068Z,49.79
2023-02-01T21:48:17.724Z,49.06
2023-02-01T21:50:45.463Z,49.74
2023-02-01T21:53:12.129Z,49.62
2023-02-01T21:55:38.758Z,50.32
2023-02-01T21:58:05.391Z,50.30
2023-02-01T22:00:32.040Z,52.01
2023-02-01T22:02:58.710Z,51.61
2023-02-01T22:05:25.549Z,51.56
2023-02-01T22:07:52.360Z,50.85
2023-02-01T22:10:19.108Z,51.04
2023-02-01T22:12:45.814Z,51.20
2023-02-01T22:15:12.528Z,50.47
2023-02-01T22:17:39.270Z,50.63
2023-02-01T22:20:06.338Z,49.52
2023-02-01T22:22:32.980Z,50.50
2023-02-01T22:24:59.803Z,50.93
2023-02-01T22:27:30.498Z,51.48
2023-02-01T22:30:13.587Z,52.64
2023-02-01T22:32:40.500Z,52.89
2023-02-01T22:35:07.823Z,51.89
2023-02-01T22:37:34.845Z,51.32
2023-02-01T22:40:01.579Z,52.07
2023-02-01T22:42:28.793Z,51.57
2023-02-01T22:44:56.514Z,51.13
2023-02-01T22:47:23.342Z,51.37
2023-02-01T22:49:50.069Z,50.44
2023-02-01T22:52:17.863Z,50.92
2023-02-01T22:54:44.543Z,50.02
2023-02-01T22:57:11.174Z,50.50
2023-02-01T22:59:37.859Z,51.65
2023-02-01T23:02:04.521Z,51.58
2023-02-01T23:04:31.232Z,50.76
2023-02-01T23:06:57.931Z,50.35
2023-02-01T23:09:26.025Z,50.40
2023-02-01T23:11:54.986Z,50.40
2023-02-01T23:14:21.791Z,50.98
2023-02-01T23:16:49.726Z,51.52
2023-02-01T23:19:17.479Z,50.92
2023-02-01T23:21:44.395Z,51.12
2023-02-01T23:24:11.274Z,50.96
2023-02-01T23:26:38.611Z,50.40
2023-02-01T23:29:05.620Z,50.59
2023-02-01T23:31:34.538Z,51.47
2023-02-01T23:34:03.094Z,51.19
2023-02-01T23:36:30.839Z,51.26
2023-02-01T23:38:58.170Z,50.34
2023-02-01T23:41:25.473Z,50.38
2023-02-01T23:43:52.147Z,50.96
2023-02-01T23:46:19.756Z,51.45
2023-02-01T23:48:48.482Z,51.08
2023-02-01T23:51:15.657Z,51.52
2023-02-01T23:53:42.661Z,50.88
2023-02-01T23:56:17.174Z,50.54
2023-02-01T23:58:43.971Z,51.91
